createdAt,value
2019-02-02T00:01:53.522Z,26.85
2019-02-02T00:04:24.109Z,22.37
2019-02-02T00:06:53.550Z,24.72
2019-02-02T00:09:28.471Z,22.62
2019-02-02T00:11:57.998Z,23.75
2019-02-02T00:14:29.019Z,21.62
2019-02-02T00:16:58.527Z,23.47
2019-02-02T00:19:28.450Z,23.50
2019-02-02T00:22:00.895Z,24.10
2019-02-02T00:24:30.339Z,29.07
2019-02-02T00:27:01.418Z,27.00
2019-02-02T00:29:30.828Z,26.15
2019-02-02T00:32:09.332Z,27.70
2019-02-02T00:34:38.821Z,26.82
2019-02-02T00:37:08.313Z,25.65
2019-02-02T00:39:40.363Z,27.25
2019-02-02T00:42:09.955Z,23.62
2019-02-02T00:44:43.779Z,23.73
2019-02-02T00:47:13.277Z,23.15
2019-02-02T00:49:45.964Z,24.72
2019-02-02T00:52:26.547Z,22.48
2019-02-02T00:54:57.990Z,19.87
2019-02-02T00:57:27.096Z,22.17
2019-02-02T00:59:58.625Z,23.83
2019-02-02T01:02:30.739Z,21.65
2019-02-02T01:05:00.306Z,21.27
2019-02-02T01:07:29.665Z,21.33
2019-02-02T01:09:59.202Z,20.32
2019-02-02T01:12:31.929Z,22.42
2019-02-02T01:15:07.365Z,22.42
2019-02-02T01:17:39.939Z,24.27
2019-02-02T01:20:12.620Z,24.18
2019-02-02T01:22:42.064Z,22.75
2019-02-02T01:25:11.613Z,24.47
2019-02-02T01:27:41.223Z,25.05
2019-02-02T01:30:12.434Z,23.65
2019-02-02T01:32:42.064Z,23.40
2019-02-02T01:35:13.034Z,23.27
2019-02-02T01:37:42.611Z,31.02
2019-02-02T01:40:18.278Z,26.50
2019-02-02T01:42:47.792Z,26.12
2019-02-02T01:45:19.819Z,26.52
2019-02-02T01:47:51.615Z,26.90
2019-02-02T01:50:22.642Z,24.57
2019-02-02T01:52:52.128Z,23.87
2019-02-02T01:55:22.031Z,23.10
2019-02-02T01:57:54.234Z,24.00
2019-02-02T02:00:25.961Z,24.07
2019-02-02T02:02:58.535Z,25.00
2019-02-02T02:05:31.575Z,24.20
2019-02-02T02:08:00.767Z,23.35
2019-02-02T02:10:30.271Z,21.62
2019-02-02T02:13:00.327Z,21.90
2019-02-02T02:15:29.987Z,24.23
2019-02-02T02:17:59.548Z,24.37
2019-02-02T02:20:29.006Z,23.27
2019-02-02T02:22:58.436Z,24.70
2019-02-02T02:25:27.977Z,24.37
2019-02-02T02:27:57.398Z,24.18
2019-02-02T02:30:26.787Z,23.57
2019-02-02T02:32:56.370Z,22.22
2019-02-02T02:35:25.789Z,22.70
2019-02-02T02:37:55.312Z,22.77
2019-02-02T02:40:24.894Z,21.30
2019-02-02T02:42:54.620Z,21.33
2019-02-02T02:45:24.119Z,23.70
2019-02-02T02:47:53.795Z,25.65
2019-02-02T02:50:23.478Z,22.82
2019-02-02T02:52:54.418Z,25.62
2019-02-02T02:55:23.884Z,24.30
2019-02-02T02:57:53.540Z,21.35
2019-02-02T03:00:26.873Z,21.87
2019-02-02T03:02:56.733Z,22.65
2019-02-02T03:05:26.234Z,23.12
2019-02-02T03:07:56.208Z,23.85
2019-02-02T03:10:26.050Z,23.25
2019-02-02T03:12:56.234Z,23.32
2019-02-02T03:15:25.908Z,23.42
2019-02-02T03:17:55.507Z,23.57
2019-02-02T03:20:25.363Z,21.45
2019-02-02T03:22:54.915Z,22.70
2019-02-02T03:25:24.981Z,23.92
2019-02-02T03:27:54.539Z,24.43
2019-02-02T03:30:24.252Z,25.55
2019-02-02T03:32:53.742Z,26.42
2019-02-02T03:35:23.775Z,27.27
2019-02-02T03:37:53.399Z,27.93
2019-02-02T03:40:24.395Z,24.95
2019-02-02T03:42:54.110Z,26.90
2019-02-02T03:45:24.670Z,24.77
2019-02-02T03:47:54.721Z,27.07
2019-02-02T03:50:24.399Z,26.95
2019-02-02T03:52:53.984Z,26.75
2019-02-02T03:55:25.574Z,24.52
2019-02-02T03:57:54.756Z,26.27
2019-02-02T04:00:24.380Z,27.05
2019-02-02T04:02:53.949Z,28.27
2019-02-02T04:05:25.976Z,26.90
2019-02-02T04:07:55.505Z,26.37
2019-02-02T04:10:24.947Z,26.35
2019-02-02T04:12:54.399Z,28.15
2019-02-02T04:15:23.914Z,28.55
2019-02-02T04:17:53.614Z,29.92
2019-02-02T04:20:23.495Z,27.65
2019-02-02T04:22:53.088Z,25.80
2019-02-02T04:25:22.969Z,29.35
2019-02-02T04:27:52.949Z,25.68
2019-02-02T04:30:24.164Z,25.30
2019-02-02T04:32:53.661Z,26.07
2019-02-02T04:35:23.390Z,25.08
2019-02-02T04:37:52.956Z,24.47
2019-02-02T04:40:22.659Z,26.15
2019-02-02T04:42:52.170Z,25.12
2019-02-02T04:45:21.624Z,25.27
2019-02-02T04:47:51.085Z,27.48
2019-02-02T04:50:20.838Z,25.25
2019-02-02T04:52:50.251Z,23.45
2019-02-02T04:55:20.265Z,24.77
2019-02-02T04:57:49.774Z,24.90
2019-02-02T05:00:24.398Z,24.15
2019-02-02T05:02:53.964Z,23.83
2019-02-02T05:05:24.036Z,27.62
2019-02-02T05:07:53.566Z,36.00
2019-02-02T05:10:23.537Z,33.20
2019-02-02T05:12:53.583Z,27.20
2019-02-02T05:15:23.099Z,24.25
2019-02-02T05:17:52.571Z,25.15
2019-02-02T05:20:22.188Z,27.55
2019-02-02T05:22:51.703Z,28.07
2019-02-02T05:25:21.189Z,28.02
2019-02-02T05:27:50.934Z,27.87
2019-02-02T05:30:25.785Z,29.60
2019-02-02T05:32:55.241Z,27.13
2019-02-02T05:35:24.866Z,26.23
2019-02-02T05:37:54.317Z,29.12
2019-02-02T05:40:23.868Z,27.80
2019-02-02T05:42:53.272Z,28.77
2019-02-02T05:45:23.334Z,30.25
2019-02-02T05:47:52.883Z,31.57
2019-02-02T05:50:23.445Z,29.82
2019-02-02T05:52:53.035Z,32.17
2019-02-02T05:55:23.183Z,37.23
2019-02-02T05:57:52.653Z,29.95
2019-02-02T06:00:42.808Z,33.95
2019-02-02T06:03:12.267Z,34.50
2019-02-02T06:05:41.747Z,38.85
2019-02-02T06:08:11.359Z,36.00
2019-02-02T06:10:40.866Z,38.00
2019-02-02T06:13:10.317Z,34.08
2019-02-02T06:15:39.966Z,36.48
2019-02-02T06:18:09.485Z,36.83
2019-02-02T06:20:38.991Z,39.27
2019-02-02T06:23:08.421Z,35.63
2019-02-02T06:25:38.107Z,41.23
2019-02-02T06:28:07.871Z,38.55
2019-02-02T06:30:37.597Z,39.92
2019-02-02T06:33:07.072Z,46.88
2019-02-02T06:35:36.527Z,38.78
2019-02-02T06:38:06.176Z,47.58
2019-02-02T06:40:35.653Z,41.42
2019-02-02T06:43:05.142Z,39.92
2019-02-02T06:45:36.390Z,40.20
2019-02-02T06:48:06.412Z,37.75
2019-02-02T06:50:35.971Z,40.30
2019-02-02T06:53:06.241Z,39.50
2019-02-02T06:55:35.687Z,40.12
2019-02-02T06:58:05.800Z,40.43
2019-02-02T07:00:35.373Z,39.00
2019-02-02T07:03:04.917Z,42.95
2019-02-02T07:05:34.354Z,46.18
2019-02-02T07:08:03.844Z,40.78
2019-02-02T07:10:33.344Z,43.63
2019-02-02T07:13:03.074Z,38.73
2019-02-02T07:15:32.534Z,36.20
2019-02-02T07:18:02.134Z,36.28
2019-02-02T07:20:31.686Z,35.63
2019-02-02T07:23:01.174Z,35.60
2019-02-02T07:25:30.764Z,37.53
2019-02-02T07:28:00.361Z,42.13
2019-02-02T07:30:29.975Z,37.20
2019-02-02T07:33:00.070Z,39.85
2019-02-02T07:35:29.640Z,43.13
2019-02-02T07:37:59.231Z,38.28
2019-02-02T07:40:28.808Z,38.60
2019-02-02T07:42:58.226Z,34.25
2019-02-02T07:45:30.179Z,34.92
2019-02-02T07:48:00.019Z,36.80
2019-02-02T07:50:29.522Z,37.58
2019-02-02T07:52:59.069Z,35.92
2019-02-02T07:55:28.703Z,36.53
2019-02-02T07:57:58.202Z,36.48
2019-02-02T08:00:40.362Z,40.98
2019-02-02T08:03:08.285Z,36.85
2019-02-02T08:05:38.056Z,34.95
2019-02-02T08:08:07.653Z,39.33
2019-02-02T08:10:37.117Z,38.02
2019-02-02T08:13:07.639Z,34.60
2019-02-02T08:15:37.108Z,33.83
2019-02-02T08:18:07.994Z,36.28
2019-02-02T08:20:37.490Z,35.30
2019-02-02T08:23:06.941Z,34.18
2019-02-02T08:25:36.484Z,34.10
2019-02-02T08:28:06.323Z,35.73
2019-02-02T08:30:36.832Z,36.65
2019-02-02T08:33:07.268Z,35.28
2019-02-02T08:35:39.612Z,32.40
2019-02-02T08:38:09.072Z,36.10
2019-02-02T08:40:38.596Z,35.30
2019-02-02T08:43:11.057Z,38.05
2019-02-02T08:45:40.611Z,34.70
2019-02-02T08:48:10.208Z,34.98
2019-02-02T08:50:40.049Z,37.55
2019-02-02T08:53:09.723Z,36.40
2019-02-02T08:55:39.393Z,38.02
2019-02-02T08:58:08.897Z,36.77
2019-02-02T09:00:38.562Z,37.83
2019-02-02T09:03:08.010Z,36.20
2019-02-02T09:05:39.782Z,41.63
2019-02-02T09:08:13.088Z,38.48
2019-02-02T09:10:42.502Z,38.85
2019-02-02T09:13:11.927Z,37.48
2019-02-02T09:15:41.454Z,36.08
2019-02-02T09:18:11.095Z,37.50
2019-02-02T09:20:40.568Z,35.35
2019-02-02T09:23:11.348Z,34.05
2019-02-02T09:25:40.875Z,41.75
2019-02-02T09:28:10.301Z,36.42
2019-02-02T09:30:40.062Z,35.03
2019-02-02T09:33:09.535Z,35.20
2019-02-02T09:35:39.016Z,35.45
2019-02-02T09:38:11.747Z,37.17
2019-02-02T09:40:39.834Z,34.60
2019-02-02T09:43:09.308Z,32.65
2019-02-02T09:45:38.796Z,32.40
2019-02-02T09:48:08.382Z,35.10
2019-02-02T09:50:37.869Z,33.65
2019-02-02T09:53:07.444Z,36.35
2019-02-02T09:55:37.208Z,34.95
2019-02-02T09:58:09.541Z,31.02
2019-02-02T10:00:39.042Z,33.75
2019-02-02T10:03:08.693Z,36.88
2019-02-02T10:05:40.435Z,32.53
2019-02-02T10:08:09.980Z,33.15
2019-02-02T10:10:39.440Z,34.98
2019-02-02T10:13:09.386Z,33.58
2019-02-02T10:15:38.866Z,28.95
2019-02-02T10:18:08.429Z,30.72
2019-02-02T10:20:38.418Z,32.93
2019-02-02T10:23:08.086Z,29.18
2019-02-02T10:25:37.742Z,28.27
2019-02-02T10:28:07.450Z,27.48
2019-02-02T10:30:39.374Z,25.52
2019-02-02T10:33:09.195Z,26.20
2019-02-02T10:35:40.018Z,27.85
2019-02-02T10:38:11.204Z,28.05
2019-02-02T10:40:48.305Z,26.57
2019-02-02T10:43:17.759Z,30.37
2019-02-02T10:45:47.340Z,28.95
2019-02-02T10:48:17.026Z,28.57
2019-02-02T10:50:46.484Z,29.75
2019-02-02T10:53:15.896Z,28.87
2019-02-02T10:55:45.586Z,32.28
2019-02-02T10:58:16.270Z,30.75
2019-02-02T11:00:46.117Z,30.70
2019-02-02T11:03:15.562Z,27.70
2019-02-02T11:05:45.027Z,32.65
2019-02-02T11:08:15.015Z,30.90
2019-02-02T11:10:44.817Z,30.57
2019-02-02T11:13:16.366Z,31.70
2019-02-02T11:15:45.644Z,34.73
2019-02-02T11:18:15.318Z,29.63
2019-02-02T11:20:45.105Z,32.90
2019-02-02T11:23:14.759Z,29.23
2019-02-02T11:25:44.443Z,29.40
2019-02-02T11:28:14.195Z,29.25
2019-02-02T11:30:43.923Z,29.50
2019-02-02T11:33:13.672Z,33.98
2019-02-02T11:35:43.306Z,32.50
2019-02-02T11:38:13.322Z,32.95
2019-02-02T11:40:43.284Z,30.23
2019-02-02T11:43:13.497Z,31.75
2019-02-02T11:45:43.041Z,30.55
2019-02-02T11:48:14.978Z,32.70
2019-02-02T11:50:44.907Z,31.75
2019-02-02T11:53:17.620Z,29.65
2019-02-02T11:55:47.215Z,33.50
2019-02-02T11:58:16.888Z,31.65
2019-02-02T12:00:46.518Z,32.15
2019-02-02T12:03:16.179Z,32.33
2019-02-02T12:05:45.746Z,32.17
2019-02-02T12:08:17.039Z,32.75
2019-02-02T12:10:46.694Z,31.00
2019-02-02T12:13:16.150Z,34.43
2019-02-02T12:15:45.919Z,36.68
2019-02-02T12:18:15.382Z,29.82
2019-02-02T12:20:44.802Z,27.98
2019-02-02T12:23:14.334Z,34.95
2019-02-02T12:25:44.020Z,29.23
2019-02-02T12:28:13.453Z,33.45
2019-02-02T12:30:42.976Z,32.08
2019-02-02T12:33:13.838Z,31.70
2019-02-02T12:35:44.752Z,33.02
2019-02-02T12:38:14.474Z,32.73
2019-02-02T12:40:44.085Z,33.98
2019-02-02T12:43:13.615Z,29.92
2019-02-02T12:45:46.117Z,31.10
2019-02-02T12:48:15.732Z,29.07
2019-02-02T12:50:45.356Z,29.15
2019-02-02T12:53:14.825Z,27.62
2019-02-02T12:55:48.461Z,31.90
2019-02-02T12:58:17.843Z,30.32
2019-02-02T13:00:47.589Z,31.42
2019-02-02T13:03:19.895Z,37.42
2019-02-02T13:05:50.597Z,28.23
2019-02-02T13:08:20.244Z,32.55
2019-02-02T13:10:49.650Z,30.17
2019-02-02T13:13:19.346Z,31.52
2019-02-02T13:15:48.979Z,29.00
2019-02-02T13:18:18.566Z,32.58
2019-02-02T13:20:48.174Z,30.30
2019-02-02T13:23:17.641Z,31.77
2019-02-02T13:25:47.169Z,26.60
2019-02-02T13:28:16.648Z,30.52
2019-02-02T13:30:46.269Z,32.10
2019-02-02T13:33:15.802Z,33.67
2019-02-02T13:35:46.284Z,29.65
2019-02-02T13:38:15.808Z,30.43
2019-02-02T13:40:45.289Z,29.85
2019-02-02T13:43:14.921Z,25.92
2019-02-02T13:45:44.428Z,29.23
2019-02-02T13:48:13.994Z,31.27
2019-02-02T13:50:43.692Z,32.33
2019-02-02T13:53:16.373Z,33.08
2019-02-02T13:55:46.117Z,29.77
2019-02-02T13:58:15.740Z,28.55
2019-02-02T14:00:46.320Z,28.55
2019-02-02T14:03:15.963Z,30.55
2019-02-02T14:05:45.513Z,32.70
2019-02-02T14:08:15.167Z,31.00
2019-02-02T14:10:44.759Z,30.17
2019-02-02T14:13:14.288Z,33.13
2019-02-02T14:15:43.873Z,32.55
2019-02-02T14:18:13.418Z,28.83
2019-02-02T14:20:42.978Z,31.37
2019-02-02T14:23:12.782Z,33.55
2019-02-02T14:25:43.538Z,31.37
2019-02-02T14:28:13.174Z,28.90
2019-02-02T14:30:46.232Z,33.83
2019-02-02T14:33:15.804Z,30.48
2019-02-02T14:35:45.410Z,32.70
2019-02-02T14:38:14.882Z,35.25
2019-02-02T14:40:44.423Z,32.23
2019-02-02T14:43:14.094Z,32.78
2019-02-02T14:45:43.648Z,31.93
2019-02-02T14:48:13.343Z,35.68
2019-02-02T14:50:42.934Z,31.90
2019-02-02T14:53:12.608Z,29.50
2019-02-02T14:55:42.305Z,32.73
2019-02-02T14:58:12.134Z,35.52
2019-02-02T15:00:41.722Z,28.27
2019-02-02T15:03:11.347Z,29.82
2019-02-02T15:05:43.226Z,25.85
2019-02-02T15:08:12.958Z,28.45
2019-02-02T15:10:42.487Z,30.05
2019-02-02T15:13:12.062Z,30.60
2019-02-02T15:15:41.960Z,31.12
2019-02-02T15:18:11.405Z,28.50
2019-02-02T15:20:40.932Z,31.45
2019-02-02T15:23:10.413Z,30.52
2019-02-02T15:25:40.120Z,28.17
2019-02-02T15:28:09.680Z,27.62
2019-02-02T15:30:39.368Z,30.20
2019-02-02T15:33:08.895Z,28.50
2019-02-02T15:35:38.597Z,30.40
2019-02-02T15:38:08.078Z,31.15
2019-02-02T15:40:37.642Z,27.30
2019-02-02T15:43:09.909Z,27.80
2019-02-02T15:45:39.415Z,27.50
2019-02-02T15:48:09.883Z,27.98
2019-02-02T15:50:39.500Z,29.10
2019-02-02T15:53:08.956Z,32.55
2019-02-02T15:55:38.510Z,28.32
2019-02-02T15:58:08.117Z,29.02
2019-02-02T16:00:38.645Z,30.90
2019-02-02T16:03:08.270Z,27.80
2019-02-02T16:05:38.222Z,28.20
2019-02-02T16:08:10.746Z,25.48
2019-02-02T16:10:40.374Z,27.87
2019-02-02T16:13:09.865Z,24.20
2019-02-02T16:15:39.791Z,23.12
2019-02-02T16:18:09.738Z,24.50
2019-02-02T16:20:42.027Z,28.32
2019-02-02T16:23:13.116Z,26.65
2019-02-02T16:25:42.749Z,27.13
2019-02-02T16:28:12.375Z,27.42
2019-02-02T16:30:41.986Z,23.98
2019-02-02T16:33:11.472Z,25.05
2019-02-02T16:35:41.258Z,21.33
2019-02-02T16:38:10.794Z,21.35
2019-02-02T16:40:40.352Z,27.05
2019-02-02T16:43:12.243Z,22.27
2019-02-02T16:45:41.948Z,26.12
2019-02-02T16:48:11.433Z,28.90
2019-02-02T16:50:40.986Z,25.45
2019-02-02T16:53:10.874Z,27.27
2019-02-02T16:55:40.478Z,27.90
2019-02-02T16:58:10.192Z,31.93
2019-02-02T17:00:39.827Z,32.53
2019-02-02T17:03:09.553Z,32.73
2019-02-02T17:05:39.036Z,32.08
2019-02-02T17:08:08.535Z,37.88
2019-02-02T17:10:38.466Z,29.45
2019-02-02T17:13:08.430Z,29.07
2019-02-02T17:15:37.937Z,28.70
2019-02-02T17:18:08.169Z,31.80
2019-02-02T17:20:42.770Z,28.87
2019-02-02T17:23:12.210Z,27.48
2019-02-02T17:25:41.691Z,25.30
2019-02-02T17:28:11.454Z,26.68
2019-02-02T17:30:41.046Z,29.37
2019-02-02T17:33:12.973Z,34.63
2019-02-02T17:35:43.044Z,27.98
2019-02-02T17:38:12.467Z,33.53
2019-02-02T17:40:42.004Z,30.27
2019-02-02T17:43:11.766Z,31.30
2019-02-02T17:45:41.267Z,30.30
2019-02-02T17:48:13.254Z,30.43
2019-02-02T17:50:42.966Z,35.60
2019-02-02T17:53:12.590Z,28.30
2019-02-02T17:55:42.242Z,31.73
2019-02-02T17:58:13.515Z,30.68
2019-02-02T18:00:57.965Z,33.42
2019-02-02T18:03:27.615Z,33.30
2019-02-02T18:05:57.306Z,34.55
2019-02-02T18:08:26.931Z,32.95
2019-02-02T18:10:56.881Z,31.50
2019-02-02T18:13:26.364Z,28.55
2019-02-02T18:15:55.855Z,31.52
2019-02-02T18:18:25.317Z,34.25
2019-02-02T18:20:54.808Z,30.30
2019-02-02T18:23:24.378Z,36.25
2019-02-02T18:25:54.026Z,35.30
2019-02-02T18:28:23.554Z,42.13
2019-02-02T18:30:53.235Z,43.23
2019-02-02T18:33:22.764Z,40.92
2019-02-02T18:35:52.566Z,43.25
2019-02-02T18:38:22.123Z,43.33
2019-02-02T18:40:52.099Z,45.20
2019-02-02T18:43:21.623Z,46.68
2019-02-02T18:45:51.195Z,43.05
2019-02-02T18:48:20.671Z,39.38
2019-02-02T18:50:50.259Z,45.08
2019-02-02T18:53:19.929Z,45.95
2019-02-02T18:55:52.835Z,44.60
2019-02-02T18:58:22.719Z,38.42
2019-02-02T19:00:52.196Z,44.20
2019-02-02T19:03:21.907Z,41.53
2019-02-02T19:05:51.483Z,48.45
2019-02-02T19:08:21.290Z,41.88
2019-02-02T19:10:50.818Z,39.38
2019-02-02T19:13:20.282Z,48.68
2019-02-02T19:15:49.801Z,43.40
2019-02-02T19:18:19.473Z,47.10
2019-02-02T19:20:49.054Z,41.23
2019-02-02T19:23:25.482Z,47.23
2019-02-02T19:25:49.837Z,45.60
2019-02-02T19:28:19.327Z,46.15
2019-02-02T19:30:48.741Z,47.43
2019-02-02T19:33:18.555Z,41.25
2019-02-02T19:35:48.277Z,44.70
2019-02-02T19:38:17.769Z,42.45
2019-02-02T19:40:47.223Z,46.05
2019-02-02T19:43:19.074Z,42.62
2019-02-02T19:45:48.627Z,44.42
2019-02-02T19:48:18.385Z,44.53
2019-02-02T19:50:48.156Z,45.85
2019-02-02T19:53:18.032Z,43.90
2019-02-02T19:55:47.617Z,48.25
2019-02-02T19:58:17.451Z,45.48
2019-02-02T20:00:47.052Z,47.65
2019-02-02T20:03:16.930Z,44.50
2019-02-02T20:05:46.545Z,51.13
2019-02-02T20:08:16.085Z,48.08
2019-02-02T20:10:45.691Z,42.60
2019-02-02T20:13:15.278Z,43.28
2019-02-02T20:15:45.144Z,45.58
2019-02-02T20:18:14.605Z,43.05
2019-02-02T20:20:44.455Z,41.02
2019-02-02T20:23:14.042Z,53.70
2019-02-02T20:25:43.745Z,45.98
2019-02-02T20:28:13.306Z,51.90
2019-02-02T20:30:43.368Z,54.95
2019-02-02T20:33:13.411Z,54.00
2019-02-02T20:35:43.070Z,50.48
2019-02-02T20:38:13.105Z,49.60
2019-02-02T20:40:42.968Z,44.50
2019-02-02T20:43:12.894Z,49.35
2019-02-02T20:45:42.544Z,45.33
2019-02-02T20:48:12.474Z,49.95
2019-02-02T20:50:42.189Z,45.78
2019-02-02T20:53:12.010Z,50.98
2019-02-02T20:55:44.016Z,52.43
2019-02-02T20:58:13.861Z,52.83
2019-02-02T21:00:43.657Z,59.45
2019-02-02T21:03:13.593Z,53.00
2019-02-02T21:05:51.964Z,55.25
2019-02-02T21:08:14.679Z,51.85
2019-02-02T21:10:44.768Z,50.92
2019-02-02T21:13:14.518Z,59.20
2019-02-02T21:15:44.153Z,46.80
2019-02-02T21:18:13.934Z,55.08
2019-02-02T21:20:43.573Z,51.83
2019-02-02T21:23:13.544Z,58.42
2019-02-02T21:25:43.567Z,55.40
2019-02-02T21:28:13.155Z,58.70
2019-02-02T21:30:42.714Z,66.33
2019-02-02T21:33:12.306Z,63.85
2019-02-02T21:35:41.856Z,52.88
2019-02-02T21:38:11.571Z,55.08
2019-02-02T21:40:41.386Z,49.67
2019-02-02T21:43:11.184Z,45.03
2019-02-02T21:45:40.786Z,56.60
2019-02-02T21:48:10.506Z,45.83
2019-02-02T21:50:40.180Z,49.60
2019-02-02T21:53:09.842Z,52.05
2019-02-02T21:55:39.479Z,49.33
2019-02-02T21:58:09.801Z,48.58
2019-02-02T22:00:42.280Z,46.05
2019-02-02T22:03:12.080Z,43.23
2019-02-02T22:05:41.715Z,46.92
2019-02-02T22:08:11.366Z,46.37
2019-02-02T22:10:41.764Z,46.60
2019-02-02T22:13:11.544Z,43.52
2019-02-02T22:15:41.100Z,43.85
2019-02-02T22:18:10.931Z,47.05
2019-02-02T22:20:40.607Z,46.45
2019-02-02T22:23:10.704Z,42.33
2019-02-02T22:25:40.465Z,47.55
2019-02-02T22:28:10.050Z,44.70
2019-02-02T22:30:39.871Z,43.10
2019-02-02T22:33:09.614Z,40.75
2019-02-02T22:35:39.642Z,46.28
2019-02-02T22:38:09.618Z,45.88
2019-02-02T22:40:39.223Z,45.52
2019-02-02T22:43:08.972Z,38.38
2019-02-02T22:45:38.511Z,41.35
2019-02-02T22:48:08.291Z,40.50
2019-02-02T22:50:40.587Z,37.63
2019-02-02T22:53:12.831Z,40.12
2019-02-02T22:55:42.532Z,40.98
2019-02-02T22:58:12.246Z,40.50
2019-02-02T23:01:18.598Z,36.10
2019-02-02T23:04:11.802Z,36.53
2019-02-02T23:06:57.060Z,35.00
2019-02-02T23:10:16.629Z,31.97
2019-02-02T23:13:39.062Z,35.15
2019-02-02T23:16:29.689Z,34.92
2019-02-02T23:19:00.592Z,31.40
2019-02-02T23:21:31.335Z,30.62
2019-02-02T23:24:01.102Z,32.80
2019-02-02T23:26:30.840Z,32.35
2019-02-02T23:29:00.602Z,27.62
2019-02-02T23:31:30.573Z,31.87
2019-02-02T23:34:00.272Z,31.50
2019-02-02T23:36:29.986Z,29.07
2019-02-02T23:38:59.645Z,27.30
2019-02-02T23:41:29.357Z,27.90
2019-02-02T23:43:59.107Z,28.17
2019-02-02T23:46:28.834Z,28.70
2019-02-02T23:48:58.435Z,26.68
2019-02-02T23:51:27.988Z,26.42
2019-02-02T23:53:57.598Z,25.90
2019-02-02T23:56:27.802Z,24.95
2019-02-02T23:58:57.648Z,27.02
